sensor_id;sensor_type;location;lat;lon;timestamp;P1;durP1;ratioP1;P2;durP2;ratioP2
6519;SDS011;3293;51.690;5.982;2023-04-03T00:01:47;7.07;;;5.27;;
6519;SDS011;3293;51.690;5.982;2023-04-03T00:06:47;6.90;;;5.53;;
6519;SDS011;3293;51.690;5.982;2023-04-03T00:11:47;7.97;;;5.60;;
6519;SDS011;3293;51.690;5.982;2023-04-03T00:16:47;7.17;;;5.23;;
6519;SDS011;3293;51.690;5.982;2023-04-03T00:21:47;5.33;;;4.80;;
6519;SDS011;3293;51.690;5.982;2023-04-03T00:26:47;7.73;;;5.13;;
6519;SDS011;3293;51.690;5.982;2023-04-03T00:31:47;11.00;;;5.87;;
6519;SDS011;3293;51.690;5.982;2023-04-03T00:36:47;6.43;;;5.57;;
6519;SDS011;3293;51.690;5.982;2023-04-03T00:41:47;7.90;;;5.77;;
6519;SDS011;3293;51.690;5.982;2023-04-03T00:46:47;9.40;;;5.90;;
6519;SDS011;3293;51.690;5.982;2023-04-03T00:51:47;10.40;;;6.50;;
6519;SDS011;3293;51.690;5.982;2023-04-03T00:56:47;11.10;;;5.83;;
6519;SDS011;3293;51.690;5.982;2023-04-03T01:01:49;11.70;;;5.90;;
6519;SDS011;3293;51.690;5.982;2023-04-03T01:06:50;12.07;;;6.00;;
6519;SDS011;3293;51.690;5.982;2023-04-03T01:11:50;6.83;;;4.93;;
6519;SDS011;3293;51.690;5.982;2023-04-03T01:16:55;5.80;;;4.50;;
6519;SDS011;3293;51.690;5.982;2023-04-03T01:22:00;6.40;;;4.87;;
6519;SDS011;3293;51.690;5.982;2023-04-03T01:27:16;5.00;;;4.30;;
6519;SDS011;3293;51.690;5.982;2023-04-03T01:32:16;10.10;;;4.37;;
6519;SDS011;3293;51.690;5.982;2023-04-03T01:37:16;5.40;;;4.50;;
6519;SDS011;3293;51.690;5.982;2023-04-03T01:42:16;4.73;;;4.10;;
6519;SDS011;3293;51.690;5.982;2023-04-03T01:47:16;4.90;;;3.90;;
6519;SDS011;3293;51.690;5.982;2023-04-03T01:52:16;7.53;;;4.20;;
6519;SDS011;3293;51.690;5.982;2023-04-03T01:57:17;5.07;;;3.90;;
6519;SDS011;3293;51.690;5.982;2023-04-03T02:02:18;9.00;;;4.10;;
6519;SDS011;3293;51.690;5.982;2023-04-03T02:07:20;5.87;;;3.50;;
6519;SDS011;3293;51.690;5.982;2023-04-03T02:12:20;3.67;;;3.37;;
6519;SDS011;3293;51.690;5.982;2023-04-03T02:17:21;7.27;;;3.80;;
6519;SDS011;3293;51.690;5.982;2023-04-03T02:22:20;4.00;;;3.70;;
6519;SDS011;3293;51.690;5.982;2023-04-03T02:27:21;6.93;;;4.13;;
6519;SDS011;3293;51.690;5.982;2023-04-03T02:32:21;4.50;;;3.77;;
6519;SDS011;3293;51.690;5.982;2023-04-03T02:37:21;8.67;;;3.77;;
6519;SDS011;3293;51.690;5.982;2023-04-03T02:42:21;5.03;;;3.73;;
6519;SDS011;3293;51.690;5.982;2023-04-03T02:47:21;4.43;;;3.83;;
6519;SDS011;3293;51.690;5.982;2023-04-03T02:52:21;6.53;;;3.53;;
6519;SDS011;3293;51.690;5.982;2023-04-03T02:57:21;6.00;;;3.73;;
6519;SDS011;3293;51.690;5.982;2023-04-03T03:02:22;4.63;;;4.03;;
6519;SDS011;3293;51.690;5.982;2023-04-03T03:07:22;5.63;;;4.43;;
6519;SDS011;3293;51.690;5.982;2023-04-03T03:12:21;5.87;;;3.57;;
6519;SDS011;3293;51.690;5.982;2023-04-03T03:17:23;3.80;;;3.40;;
6519;SDS011;3293;51.690;5.982;2023-04-03T03:22:23;6.23;;;3.30;;
6519;SDS011;3293;51.690;5.982;2023-04-03T03:27:23;3.87;;;3.47;;
6519;SDS011;3293;51.690;5.982;2023-04-03T03:32:24;6.87;;;3.30;;
6519;SDS011;3293;51.690;5.982;2023-04-03T03:37:24;10.10;;;4.67;;
6519;SDS011;3293;51.690;5.982;2023-04-03T03:42:24;4.10;;;3.70;;
6519;SDS011;3293;51.690;5.982;2023-04-03T03:47:24;8.27;;;3.80;;
6519;SDS011;3293;51.690;5.982;2023-04-03T03:52:25;7.10;;;3.97;;
6519;SDS011;3293;51.690;5.982;2023-04-03T03:57:25;5.83;;;3.80;;
6519;SDS011;3293;51.690;5.982;2023-04-03T04:02:27;7.33;;;4.00;;
6519;SDS011;3293;51.690;5.982;2023-04-03T04:07:27;6.47;;;4.23;;
6519;SDS011;3293;51.690;5.982;2023-04-03T04:12:28;6.57;;;3.70;;
6519;SDS011;3293;51.690;5.982;2023-04-03T04:17:28;4.33;;;3.93;;
6519;SDS011;3293;51.690;5.982;2023-04-03T04:22:28;5.13;;;3.90;;
6519;SDS011;3293;51.690;5.982;2023-04-03T04:27:28;5.13;;;3.90;;
6519;SDS011;3293;51.690;5.982;2023-04-03T04:32:28;3.93;;;3.50;;
6519;SDS011;3293;51.690;5.982;2023-04-03T04:37:29;6.47;;;3.83;;
6519;SDS011;3293;51.690;5.982;2023-04-03T04:42:29;4.80;;;3.60;;
6519;SDS011;3293;51.690;5.982;2023-04-03T04:47:29;7.20;;;3.63;;
6519;SDS011;3293;51.690;5.982;2023-04-03T04:52:29;3.40;;;3.10;;
6519;SDS011;3293;51.690;5.982;2023-04-03T04:57:29;4.60;;;3.67;;
6519;SDS011;3293;51.690;5.982;2023-04-03T05:02:29;4.17;;;3.13;;
6519;SDS011;3293;51.690;5.982;2023-04-03T05:07:29;6.13;;;3.10;;
6519;SDS011;3293;51.690;5.982;2023-04-03T05:12:29;5.13;;;3.10;;
6519;SDS011;3293;51.690;5.982;2023-04-03T05:17:29;9.47;;;3.60;;
6519;SDS011;3293;51.690;5.982;2023-04-03T05:22:29;4.03;;;3.60;;
6519;SDS011;3293;51.690;5.982;2023-04-03T05:27:29;4.73;;;3.60;;
6519;SDS011;3293;51.690;5.982;2023-04-03T05:32:29;4.37;;;3.43;;
6519;SDS011;3293;51.690;5.982;2023-04-03T05:37:29;3.63;;;3.23;;
6519;SDS011;3293;51.690;5.982;2023-04-03T05:42:29;5.97;;;3.40;;
6519;SDS011;3293;51.690;5.982;2023-04-03T05:47:29;8.50;;;3.60;;
6519;SDS011;3293;51.690;5.982;2023-04-03T05:52:30;6.47;;;3.10;;
6519;SDS011;3293;51.690;5.982;2023-04-03T05:57:39;6.17;;;3.13;;
6519;SDS011;3293;51.690;5.982;2023-04-03T06:02:39;8.07;;;3.40;;
6519;SDS011;3293;51.690;5.982;2023-04-03T06:07:40;6.43;;;3.37;;
6519;SDS011;3293;51.690;5.982;2023-04-03T06:12:40;4.17;;;3.27;;
6519;SDS011;3293;51.690;5.982;2023-04-03T06:17:40;6.03;;;3.37;;
6519;SDS011;3293;51.690;5.982;2023-04-03T06:22:40;5.97;;;3.40;;
6519;SDS011;3293;51.690;5.982;2023-04-03T06:27:41;6.20;;;3.10;;
6519;SDS011;3293;51.690;5.982;2023-04-03T06:32:41;6.13;;;3.13;;
6519;SDS011;3293;51.690;5.982;2023-04-03T06:37:42;5.80;;;3.33;;
6519;SDS011;3293;51.690;5.982;2023-04-03T06:42:42;5.40;;;3.17;;
6519;SDS011;3293;51.690;5.982;2023-04-03T06:47:43;4.43;;;3.20;;
6519;SDS011;3293;51.690;5.982;2023-04-03T06:52:43;4.83;;;3.60;;
6519;SDS011;3293;51.690;5.982;2023-04-03T06:57:42;4.53;;;2.83;;
6519;SDS011;3293;51.690;5.982;2023-04-03T07:02:42;6.60;;;3.43;;
6519;SDS011;3293;51.690;5.982;2023-04-03T07:07:43;5.27;;;3.30;;
6519;SDS011;3293;51.690;5.982;2023-04-03T07:12:43;4.83;;;2.80;;
6519;SDS011;3293;51.690;5.982;2023-04-03T07:17:44;3.27;;;2.50;;
6519;SDS011;3293;51.690;5.982;2023-04-03T07:22:45;7.33;;;2.90;;
6519;SDS011;3293;51.690;5.982;2023-04-03T07:27:46;4.70;;;2.57;;
6519;SDS011;3293;51.690;5.982;2023-04-03T07:32:46;5.87;;;2.60;;
6519;SDS011;3293;51.690;5.982;2023-04-03T07:37:47;4.00;;;2.50;;
6519;SDS011;3293;51.690;5.982;2023-04-03T07:42:47;3.40;;;2.30;;
6519;SDS011;3293;51.690;5.982;2023-04-03T07:47:48;4.17;;;2.60;;
6519;SDS011;3293;51.690;5.982;2023-04-03T07:52:48;7.03;;;2.73;;
6519;SDS011;3293;51.690;5.982;2023-04-03T07:57:50;6.37;;;2.93;;
6519;SDS011;3293;51.690;5.982;2023-04-03T08:02:50;6.13;;;2.63;;
6519;SDS011;3293;51.690;5.982;2023-04-03T08:07:51;7.77;;;2.73;;
6519;SDS011;3293;51.690;5.982;2023-04-03T08:12:51;4.53;;;2.47;;
6519;SDS011;3293;51.690;5.982;2023-04-03T08:17:51;5.30;;;2.00;;
6519;SDS011;3293;51.690;5.982;2023-04-03T08:22:51;3.83;;;2.10;;
6519;SDS011;3293;51.690;5.982;2023-04-03T08:27:51;2.30;;;2.03;;
6519;SDS011;3293;51.690;5.982;2023-04-03T08:32:51;4.03;;;2.20;;
6519;SDS011;3293;51.690;5.982;2023-04-03T08:37:51;2.93;;;2.10;;
6519;SDS011;3293;51.690;5.982;2023-04-03T08:48:08;3.50;;;2.63;;
6519;SDS011;3293;51.690;5.982;2023-04-03T08:53:24;5.07;;;2.13;;
6519;SDS011;3293;51.690;5.982;2023-04-03T08:58:28;2.20;;;1.77;;
6519;SDS011;3293;51.690;5.982;2023-04-03T09:03:41;2.37;;;1.80;;
6519;SDS011;3293;51.690;5.982;2023-04-03T09:25:25;2.77;;;1.97;;
6519;SDS011;3293;51.690;5.982;2023-04-03T09:30:28;2.13;;;1.93;;
6519;SDS011;3293;51.690;5.982;2023-04-03T09:35:29;1.80;;;1.70;;
6519;SDS011;3293;51.690;5.982;2023-04-03T09:40:33;2.10;;;1.60;;
6519;SDS011;3293;51.690;5.982;2023-04-03T09:45:37;2.63;;;1.70;;
6519;SDS011;3293;51.690;5.982;2023-04-03T09:50:37;1.60;;;1.50;;
6519;SDS011;3293;51.690;5.982;2023-04-03T09:55:51;1.60;;;1.50;;
6519;SDS011;3293;51.690;5.982;2023-04-03T10:00:55;1.77;;;1.67;;
6519;SDS011;3293;51.690;5.982;2023-04-03T10:05:57;1.80;;;1.70;;
6519;SDS011;3293;51.690;5.982;2023-04-03T10:11:31;2.10;;;1.50;;
6519;SDS011;3293;51.690;5.982;2023-04-03T10:16:35;1.70;;;1.60;;
6519;SDS011;3293;51.690;5.982;2023-04-03T10:21:51;1.60;;;1.50;;
6519;SDS011;3293;51.690;5.982;2023-04-03T10:27:04;1.97;;;1.73;;
6519;SDS011;3293;51.690;5.982;2023-04-03T10:32:26;1.90;;;1.80;;
6519;SDS011;3293;51.690;5.982;2023-04-03T10:37:52;2.73;;;1.80;;
6519;SDS011;3293;51.690;5.982;2023-04-03T10:42:59;1.80;;;1.70;;
6519;SDS011;3293;51.690;5.982;2023-04-03T10:48:14;1.87;;;1.77;;
6519;SDS011;3293;51.690;5.982;2023-04-03T10:58:58;2.10;;;1.83;;
6519;SDS011;3293;51.690;5.982;2023-04-03T11:04:17;4.30;;;1.90;;
6519;SDS011;3293;51.690;5.982;2023-04-03T11:14:36;2.17;;;1.80;;
6519;SDS011;3293;51.690;5.982;2023-04-03T11:30:20;4.10;;;2.03;;
6519;SDS011;3293;51.690;5.982;2023-04-03T11:35:24;5.57;;;2.20;;
6519;SDS011;3293;51.690;5.982;2023-04-03T11:40:28;3.47;;;1.93;;
6519;SDS011;3293;51.690;5.982;2023-04-03T11:45:33;2.30;;;2.10;;
6519;SDS011;3293;51.690;5.982;2023-04-03T12:16:26;3.03;;;1.70;;
6519;SDS011;3293;51.690;5.982;2023-04-03T12:26:51;4.00;;;2.30;;
6519;SDS011;3293;51.690;5.982;2023-04-03T12:47:56;4.23;;;2.50;;
6519;SDS011;3293;51.690;5.982;2023-04-03T12:52:58;4.67;;;2.30;;
6519;SDS011;3293;51.690;5.982;2023-04-03T12:58:14;2.60;;;2.40;;
6519;SDS011;3293;51.690;5.982;2023-04-03T13:03:21;2.10;;;2.00;;
6519;SDS011;3293;51.690;5.982;2023-04-03T13:08:23;2.33;;;2.13;;
6519;SDS011;3293;51.690;5.982;2023-04-03T13:13:24;2.73;;;2.13;;
6519;SDS011;3293;51.690;5.982;2023-04-03T13:18:27;2.77;;;2.00;;
6519;SDS011;3293;51.690;5.982;2023-04-03T13:23:32;3.27;;;2.33;;
6519;SDS011;3293;51.690;5.982;2023-04-03T13:28:35;3.27;;;2.20;;
6519;SDS011;3293;51.690;5.982;2023-04-03T13:33:36;3.63;;;2.40;;
6519;SDS011;3293;51.690;5.982;2023-04-03T13:38:37;5.30;;;2.13;;
6519;SDS011;3293;51.690;5.982;2023-04-03T13:43:37;4.90;;;2.20;;
6519;SDS011;3293;51.690;5.982;2023-04-03T13:53:43;3.57;;;2.30;;
6519;SDS011;3293;51.690;5.982;2023-04-03T13:58:56;2.40;;;2.20;;
6519;SDS011;3293;51.690;5.982;2023-04-03T14:04:01;4.20;;;2.20;;
6519;SDS011;3293;51.690;5.982;2023-04-03T14:09:11;2.53;;;2.30;;
6519;SDS011;3293;51.690;5.982;2023-04-03T14:14:15;5.03;;;2.33;;
6519;SDS011;3293;51.690;5.982;2023-04-03T14:19:20;3.20;;;2.43;;
6519;SDS011;3293;51.690;5.982;2023-04-03T14:24:25;5.60;;;2.03;;
6519;SDS011;3293;51.690;5.982;2023-04-03T14:29:26;2.97;;;1.97;;
6519;SDS011;3293;51.690;5.982;2023-04-03T14:34:26;3.60;;;2.10;;
6519;SDS011;3293;51.690;5.982;2023-04-03T14:39:27;2.70;;;2.10;;
6519;SDS011;3293;51.690;5.982;2023-04-03T14:44:27;2.63;;;2.40;;
6519;SDS011;3293;51.690;5.982;2023-04-03T14:49:27;3.20;;;1.93;;
6519;SDS011;3293;51.690;5.982;2023-04-03T14:54:29;6.27;;;2.87;;
6519;SDS011;3293;51.690;5.982;2023-04-03T14:59:28;3.37;;;2.30;;
6519;SDS011;3293;51.690;5.982;2023-04-03T15:04:31;3.13;;;2.00;;
6519;SDS011;3293;51.690;5.982;2023-04-03T15:09:31;3.37;;;2.20;;
6519;SDS011;3293;51.690;5.982;2023-04-03T15:14:31;4.07;;;2.37;;
6519;SDS011;3293;51.690;5.982;2023-04-03T15:19:35;2.87;;;2.50;;
6519;SDS011;3293;51.690;5.982;2023-04-03T15:24:37;8.87;;;5.37;;
6519;SDS011;3293;51.690;5.982;2023-04-03T15:29:37;5.30;;;3.63;;
6519;SDS011;3293;51.690;5.982;2023-04-03T15:34:38;9.57;;;5.57;;
6519;SDS011;3293;51.690;5.982;2023-04-03T15:39:39;5.00;;;2.60;;
6519;SDS011;3293;51.690;5.982;2023-04-03T15:44:39;3.67;;;2.20;;
6519;SDS011;3293;51.690;5.982;2023-04-03T15:49:39;2.80;;;2.30;;
6519;SDS011;3293;51.690;5.982;2023-04-03T15:54:39;2.40;;;2.20;;
6519;SDS011;3293;51.690;5.982;2023-04-03T15:59:39;3.80;;;2.53;;
6519;SDS011;3293;51.690;5.982;2023-04-03T16:04:40;5.03;;;2.37;;
6519;SDS011;3293;51.690;5.982;2023-04-03T16:09:40;6.57;;;2.73;;
6519;SDS011;3293;51.690;5.982;2023-04-03T16:14:40;7.10;;;2.57;;
6519;SDS011;3293;51.690;5.982;2023-04-03T16:19:40;4.70;;;2.53;;
6519;SDS011;3293;51.690;5.982;2023-04-03T16:24:40;2.90;;;2.10;;
6519;SDS011;3293;51.690;5.982;2023-04-03T16:29:40;4.10;;;2.47;;
6519;SDS011;3293;51.690;5.982;2023-04-03T16:34:40;2.40;;;2.20;;
6519;SDS011;3293;51.690;5.982;2023-04-03T16:39:40;2.83;;;2.57;;
6519;SDS011;3293;51.690;5.982;2023-04-03T16:44:40;3.70;;;3.03;;
6519;SDS011;3293;51.690;5.982;2023-04-03T16:49:40;3.17;;;1.93;;
6519;SDS011;3293;51.690;5.982;2023-04-03T16:54:40;4.43;;;2.13;;
6519;SDS011;3293;51.690;5.982;2023-04-03T16:59:40;7.10;;;2.80;;
6519;SDS011;3293;51.690;5.982;2023-04-03T17:04:40;4.60;;;2.50;;
6519;SDS011;3293;51.690;5.982;2023-04-03T17:09:40;5.73;;;2.40;;
6519;SDS011;3293;51.690;5.982;2023-04-03T17:14:40;7.40;;;2.80;;
6519;SDS011;3293;51.690;5.982;2023-04-03T17:19:40;4.00;;;2.60;;
6519;SDS011;3293;51.690;5.982;2023-04-03T17:24:42;4.57;;;3.07;;
6519;SDS011;3293;51.690;5.982;2023-04-03T17:29:42;4.33;;;2.53;;
6519;SDS011;3293;51.690;5.982;2023-04-03T17:34:43;4.50;;;2.80;;
6519;SDS011;3293;51.690;5.982;2023-04-03T17:39:45;4.27;;;2.37;;
6519;SDS011;3293;51.690;5.982;2023-04-03T17:44:45;6.47;;;2.73;;
6519;SDS011;3293;51.690;5.982;2023-04-03T17:49:45;4.87;;;2.87;;
6519;SDS011;3293;51.690;5.982;2023-04-03T17:54:45;3.60;;;3.00;;
6519;SDS011;3293;51.690;5.982;2023-04-03T17:59:45;3.90;;;2.70;;
6519;SDS011;3293;51.690;5.982;2023-04-03T18:04:45;3.77;;;2.97;;
6519;SDS011;3293;51.690;5.982;2023-04-03T18:09:46;4.80;;;3.30;;
6519;SDS011;3293;51.690;5.982;2023-04-03T18:14:47;5.00;;;2.70;;
6519;SDS011;3293;51.690;5.982;2023-04-03T18:19:48;3.40;;;2.73;;
6519;SDS011;3293;51.690;5.982;2023-04-03T18:24:50;6.07;;;2.83;;
6519;SDS011;3293;51.690;5.982;2023-04-03T18:29:52;3.80;;;2.50;;
6519;SDS011;3293;51.690;5.982;2023-04-03T18:34:56;6.93;;;3.00;;
6519;SDS011;3293;51.690;5.982;2023-04-03T18:39:57;4.17;;;2.90;;
6519;SDS011;3293;51.690;5.982;2023-04-03T18:44:58;4.00;;;2.60;;
6519;SDS011;3293;51.690;5.982;2023-04-03T18:50:00;2.97;;;2.63;;
6519;SDS011;3293;51.690;5.982;2023-04-03T18:55:00;2.97;;;2.50;;
6519;SDS011;3293;51.690;5.982;2023-04-03T19:00:00;2.93;;;2.50;;
6519;SDS011;3293;51.690;5.982;2023-04-03T19:05:00;6.80;;;3.00;;
6519;SDS011;3293;51.690;5.982;2023-04-03T19:10:00;3.37;;;2.37;;
6519;SDS011;3293;51.690;5.982;2023-04-03T19:15:00;6.27;;;3.60;;
6519;SDS011;3293;51.690;5.982;2023-04-03T19:20:00;6.40;;;3.47;;
6519;SDS011;3293;51.690;5.982;2023-04-03T19:25:00;7.47;;;4.37;;
6519;SDS011;3293;51.690;5.982;2023-04-03T19:30:00;4.00;;;2.87;;
6519;SDS011;3293;51.690;5.982;2023-04-03T19:35:01;4.70;;;3.20;;
6519;SDS011;3293;51.690;5.982;2023-04-03T19:40:01;5.50;;;3.80;;
6519;SDS011;3293;51.690;5.982;2023-04-03T19:45:02;12.60;;;7.37;;
6519;SDS011;3293;51.690;5.982;2023-04-03T19:50:03;4.00;;;3.00;;
6519;SDS011;3293;51.690;5.982;2023-04-03T19:55:03;4.87;;;2.77;;
6519;SDS011;3293;51.690;5.982;2023-04-03T20:00:04;6.27;;;3.57;;
6519;SDS011;3293;51.690;5.982;2023-04-03T20:05:05;4.33;;;3.60;;
6519;SDS011;3293;51.690;5.982;2023-04-03T20:10:06;9.53;;;7.67;;
6519;SDS011;3293;51.690;5.982;2023-04-03T20:15:06;7.13;;;5.60;;
6519;SDS011;3293;51.690;5.982;2023-04-03T20:20:08;5.03;;;4.30;;
6519;SDS011;3293;51.690;5.982;2023-04-03T20:25:09;7.20;;;4.10;;
6519;SDS011;3293;51.690;5.982;2023-04-03T20:30:11;13.93;;;7.90;;
6519;SDS011;3293;51.690;5.982;2023-04-03T20:35:12;7.57;;;3.70;;
6519;SDS011;3293;51.690;5.982;2023-04-03T20:40:13;7.27;;;3.53;;
6519;SDS011;3293;51.690;5.982;2023-04-03T20:45:14;4.53;;;3.27;;
6519;SDS011;3293;51.690;5.982;2023-04-03T20:50:14;5.60;;;3.63;;
6519;SDS011;3293;51.690;5.982;2023-04-03T20:55:14;5.30;;;3.40;;
6519;SDS011;3293;51.690;5.982;2023-04-03T21:00:15;4.43;;;3.57;;
6519;SDS011;3293;51.690;5.982;2023-04-03T21:05:18;7.83;;;3.80;;
6519;SDS011;3293;51.690;5.982;2023-04-03T21:21:01;6.97;;;4.63;;
6519;SDS011;3293;51.690;5.982;2023-04-03T21:26:01;12.43;;;7.30;;
6519;SDS011;3293;51.690;5.982;2023-04-03T21:31:01;11.43;;;5.50;;
6519;SDS011;3293;51.690;5.982;2023-04-03T21:36:02;6.73;;;4.00;;
6519;SDS011;3293;51.690;5.982;2023-04-03T21:41:02;7.00;;;3.80;;
6519;SDS011;3293;51.690;5.982;2023-04-03T21:46:03;3.93;;;3.53;;
6519;SDS011;3293;51.690;5.982;2023-04-03T21:51:04;6.23;;;3.60;;
6519;SDS011;3293;51.690;5.982;2023-04-03T21:56:05;6.83;;;3.30;;
6519;SDS011;3293;51.690;5.982;2023-04-03T22:06:10;5.57;;;3.90;;
6519;SDS011;3293;51.690;5.982;2023-04-03T22:11:12;4.83;;;3.33;;
6519;SDS011;3293;51.690;5.982;2023-04-03T22:16:13;7.27;;;3.80;;
6519;SDS011;3293;51.690;5.982;2023-04-03T22:21:13;8.40;;;4.33;;
6519;SDS011;3293;51.690;5.982;2023-04-03T22:26:13;5.33;;;4.23;;
6519;SDS011;3293;51.690;5.982;2023-04-03T22:31:13;5.00;;;3.97;;
6519;SDS011;3293;51.690;5.982;2023-04-03T22:36:14;8.93;;;4.77;;
6519;SDS011;3293;51.690;5.982;2023-04-03T22:41:14;7.57;;;4.73;;
6519;SDS011;3293;51.690;5.982;2023-04-03T22:46:14;6.20;;;4.67;;
6519;SDS011;3293;51.690;5.982;2023-04-03T22:51:14;7.83;;;5.00;;
6519;SDS011;3293;51.690;5.982;2023-04-03T22:56:14;8.60;;;4.60;;
6519;SDS011;3293;51.690;5.982;2023-04-03T23:01:14;6.93;;;4.87;;
6519;SDS011;3293;51.690;5.982;2023-04-03T23:06:14;6.53;;;4.37;;
6519;SDS011;3293;51.690;5.982;2023-04-03T23:11:14;7.83;;;4.27;;
6519;SDS011;3293;51.690;5.982;2023-04-03T23:16:15;6.33;;;4.63;;
6519;SDS011;3293;51.690;5.982;2023-04-03T23:21:15;6.70;;;4.67;;
6519;SDS011;3293;51.690;5.982;2023-04-03T23:26:15;7.47;;;4.93;;
6519;SDS011;3293;51.690;5.982;2023-04-03T23:31:15;6.90;;;4.40;;
6519;SDS011;3293;51.690;5.982;2023-04-03T23:36:15;8.80;;;4.17;;
6519;SDS011;3293;51.690;5.982;2023-04-03T23:41:17;4.33;;;3.70;;
6519;SDS011;3293;51.690;5.982;2023-04-03T23:46:17;6.03;;;4.17;;
6519;SDS011;3293;51.690;5.982;2023-04-03T23:51:18;6.60;;;4.03;;
6519;SDS011;3293;51.690;5.982;2023-04-03T23:56:17;5.13;;;3.80;;
